Time;durP1;ratioP1;P1;durP2;ratioP2;P2;SDS_P1;SDS_P2;PMS_P1;PMS_P2;Temp;Humidity;BMP_temperature;BMP_pressure;BME280_temperature;BME280_humidity;BME280_pressure;Samples;Min_cycle;Max_cycle;Signal;HPM_P1;HPM_P2
2023/08/12 00:01:55;;;;;;;30.27;17.60;;;;;;;;;;5075663;28;20523;-63
2023/08/12 00:04:22;;;;;;;21.23;15.80;;;;;;;;;;5075949;28;20523;-63
2023/08/12 00:06:50;;;;;;;24.47;17.30;;;;;;;;;;5076048;28;20480;-63
2023/08/12 00:09:18;;;;;;;23.20;18.40;;;;;;;;;;5076041;28;20432;-63
2023/08/12 00:11:45;;;;;;;26.60;19.27;;;;;;;;;;5076022;28;20454;-63
2023/08/12 00:14:12;;;;;;;24.60;18.63;;;;;;;;;;5075458;28;20534;-63
2023/08/12 00:16:39;;;;;;;22.77;20.30;;;;;;;;;;5075297;28;20933;-63
2023/08/12 00:19:08;;;;;;;23.27;19.93;;;;;;;;;;5075766;28;20550;-63
2023/08/12 00:21:35;;;;;;;30.20;19.80;;;;;;;;;;5075620;28;20436;-63
2023/08/12 00:24:02;;;;;;;29.40;19.30;;;;;;;;;;5075578;28;20476;-63
2023/08/12 00:26:30;;;;;;;23.70;19.47;;;;;;;;;;5075040;28;20472;-63
2023/08/12 00:28:57;;;;;;;26.63;18.90;;;;;;;;;;5075252;28;20869;-63
2023/08/12 00:31:24;;;;;;;24.87;18.00;;;;;;;;;;5075390;28;20543;-63
2023/08/12 00:33:51;;;;;;;25.20;19.40;;;;;;;;;;5075486;28;20441;-63
2023/08/12 00:36:20;;;;;;;25.50;18.57;;;;;;;;;;5074968;28;20954;-63
2023/08/12 00:38:47;;;;;;;21.97;19.33;;;;;;;;;;5075386;28;20512;-63
2023/08/12 00:41:14;;;;;;;24.67;18.93;;;;;;;;;;5074866;28;20440;-63
2023/08/12 00:43:41;;;;;;;20.97;17.90;;;;;;;;;;5074798;28;20447;-64
2023/08/12 00:46:08;;;;;;;19.37;16.63;;;;;;;;;;5074851;28;20472;-63
2023/08/12 00:48:36;;;;;;;24.30;17.57;;;;;;;;;;5074761;28;20955;-63
2023/08/12 00:51:03;;;;;;;19.97;17.30;;;;;;;;;;5074881;28;20538;-63
2023/08/12 00:53:31;;;;;;;20.93;17.13;;;;;;;;;;5074952;28;20555;-63
2023/08/12 00:55:59;;;;;;;20.83;16.57;;;;;;;;;;5075300;28;20849;-63
2023/08/12 00:58:26;;;;;;;18.70;16.80;;;;;;;;;;5074447;28;20439;-63
2023/08/12 01:00:53;;;;;;;23.60;18.00;;;;;;;;;;5074400;28;20530;-63
2023/08/12 01:03:21;;;;;;;19.70;16.70;;;;;;;;;;5074537;28;20531;-63
2023/08/12 01:05:48;;;;;;;16.70;15.00;;;;;;;;;;5074144;28;20986;-63
2023/08/12 01:08:15;;;;;;;17.57;15.77;;;;;;;;;;5074907;28;20458;-63
2023/08/12 01:10:47;;;;;;;18.60;16.70;;;;;;;;;;5074648;28;20535;-63
2023/08/12 01:13:18;;;;;;;18.80;16.60;;;;;;;;;;5074585;28;20421;-63
2023/08/12 01:15:46;;;;;;;18.63;16.20;;;;;;;;;;5074702;28;20421;-63
2023/08/12 01:18:14;;;;;;;19.30;17.20;;;;;;;;;;5075078;28;20440;-63
2023/08/12 01:20:41;;;;;;;20.17;16.77;;;;;;;;;;5075010;28;20870;-63
2023/08/12 01:23:12;;;;;;;20.33;16.70;;;;;;;;;;5074882;28;20472;-63
2023/08/12 01:25:39;;;;;;;22.10;16.20;;;;;;;;;;5074211;28;20471;-63
2023/08/12 01:28:06;;;;;;;20.13;16.70;;;;;;;;;;5074078;28;20909;-63
2023/08/12 01:30:35;;;;;;;21.00;16.77;;;;;;;;;;5074679;28;20467;-63
2023/08/12 01:33:05;;;;;;;17.67;15.00;;;;;;;;;;5074132;28;20528;-63
2023/08/12 01:35:34;;;;;;;17.63;15.80;;;;;;;;;;5074087;28;20438;-63
2023/08/12 01:38:03;;;;;;;16.10;14.57;;;;;;;;;;5074392;28;20534;-63
2023/08/12 01:40:33;;;;;;;17.70;15.30;;;;;;;;;;5074098;28;20520;-63
2023/08/12 01:43:00;;;;;;;17.20;15.10;;;;;;;;;;5073585;28;20519;-63
2023/08/12 01:45:27;;;;;;;16.53;14.60;;;;;;;;;;5074479;28;20435;-63
2023/08/12 01:47:54;;;;;;;19.33;15.20;;;;;;;;;;5073584;28;20454;-63
2023/08/12 01:50:22;;;;;;;16.50;14.90;;;;;;;;;;5073892;28;20810;-63
2023/08/12 01:52:49;;;;;;;16.83;15.13;;;;;;;;;;5073270;28;20446;-63
2023/08/12 01:55:16;;;;;;;17.40;14.50;;;;;;;;;;5073582;28;20894;-63
2023/08/12 01:57:45;;;;;;;16.10;14.40;;;;;;;;;;5073801;28;20519;-63
2023/08/12 02:00:12;;;;;;;15.10;13.10;;;;;;;;;;5073648;28;20747;-63
2023/08/12 02:02:40;;;;;;;19.10;15.57;;;;;;;;;;5073920;28;20444;-63
2023/08/12 02:05:07;;;;;;;18.57;15.60;;;;;;;;;;5073115;28;20977;-63
2023/08/12 02:07:34;;;;;;;18.47;15.90;;;;;;;;;;5073446;28;20484;-63
2023/08/12 02:10:01;;;;;;;18.23;16.30;;;;;;;;;;5073222;28;20526;-63
2023/08/12 02:12:29;;;;;;;20.87;16.67;;;;;;;;;;5073611;28;20447;-63
2023/08/12 02:14:57;;;;;;;17.80;15.43;;;;;;;;;;5073361;28;20436;-63
2023/08/12 02:17:24;;;;;;;18.63;15.90;;;;;;;;;;5073067;28;20490;-63
2023/08/12 02:19:51;;;;;;;18.27;16.20;;;;;;;;;;5073359;28;20895;-63
2023/08/12 02:22:19;;;;;;;18.73;16.83;;;;;;;;;;5073392;28;20536;-63
2023/08/12 02:24:46;;;;;;;19.77;17.63;;;;;;;;;;5073379;28;20445;-63
2023/08/12 02:27:13;;;;;;;20.47;16.83;;;;;;;;;;5072947;28;20482;-63
2023/08/12 02:29:40;;;;;;;20.93;17.67;;;;;;;;;;5073079;28;20936;-63
2023/08/12 02:32:09;;;;;;;21.23;17.87;;;;;;;;;;5073259;28;20526;-63
2023/08/12 02:34:36;;;;;;;21.20;19.17;;;;;;;;;;5073364;28;20444;-63
2023/08/12 02:37:03;;;;;;;21.67;19.20;;;;;;;;;;5073533;28;20539;-63
2023/08/12 02:39:30;;;;;;;28.97;19.40;;;;;;;;;;5073173;28;20441;-64
2023/08/12 02:41:58;;;;;;;19.97;17.80;;;;;;;;;;5072852;28;20532;-63
2023/08/12 02:44:25;;;;;;;25.30;18.33;;;;;;;;;;5072819;28;20939;-63
2023/08/12 02:46:52;;;;;;;22.00;18.23;;;;;;;;;;5073009;28;20563;-63
2023/08/12 02:49:20;;;;;;;20.80;18.70;;;;;;;;;;5072797;28;20468;-64
2023/08/12 02:51:48;;;;;;;22.63;20.20;;;;;;;;;;5072541;28;20454;-63
2023/08/12 02:54:15;;;;;;;21.23;18.97;;;;;;;;;;5072467;28;20477;-64
2023/08/12 02:56:42;;;;;;;23.53;19.60;;;;;;;;;;5072879;28;20868;-64
2023/08/12 02:59:09;;;;;;;23.27;20.90;;;;;;;;;;5072753;28;20479;-64
2023/08/12 03:01:36;;;;;;;23.10;20.63;;;;;;;;;;5072782;28;20436;-63
2023/08/12 03:04:04;;;;;;;23.77;21.57;;;;;;;;;;5073017;28;20439;-64
2023/08/12 03:06:32;;;;;;;23.97;21.50;;;;;;;;;;5072714;28;20477;-63
2023/08/12 03:08:59;;;;;;;23.50;21.07;;;;;;;;;;5072700;28;20486;-64
2023/08/12 03:11:27;;;;;;;22.30;20.00;;;;;;;;;;5072447;28;20449;-63
2023/08/12 03:13:54;;;;;;;31.73;20.10;;;;;;;;;;5072716;28;20439;-63
2023/08/12 03:16:21;;;;;;;23.07;20.77;;;;;;;;;;5072109;28;20447;-63
2023/08/12 03:18:48;;;;;;;23.97;21.43;;;;;;;;;;5072633;28;21016;-63
2023/08/12 03:21:16;;;;;;;23.30;20.90;;;;;;;;;;5072460;28;20793;-63
2023/08/12 03:23:44;;;;;;;27.10;21.73;;;;;;;;;;5072390;28;20546;-63
2023/08/12 03:26:12;;;;;;;23.77;21.37;;;;;;;;;;5072308;28;21063;-63
2023/08/12 03:28:39;;;;;;;25.73;20.67;;;;;;;;;;5076004;28;20436;-63
2023/08/12 03:31:06;;;;;;;24.33;20.50;;;;;;;;;;5076383;28;20438;-63
2023/08/12 03:33:33;;;;;;;23.83;21.17;;;;;;;;;;5076228;28;20539;-63
2023/08/12 03:36:01;;;;;;;26.30;23.70;;;;;;;;;;5076073;28;20440;-63
2023/08/12 03:38:28;;;;;;;24.20;21.70;;;;;;;;;;5076342;28;20443;-63
2023/08/12 03:40:56;;;;;;;24.97;22.53;;;;;;;;;;5076199;28;20970;-63
2023/08/12 03:43:24;;;;;;;24.50;22.00;;;;;;;;;;5076245;28;20435;-64
2023/08/12 03:45:51;;;;;;;23.90;21.57;;;;;;;;;;5076093;28;20436;-64
2023/08/12 03:48:18;;;;;;;24.70;22.30;;;;;;;;;;5075813;28;20476;-64
2023/08/12 03:50:47;;;;;;;26.33;23.53;;;;;;;;;;5076114;28;20474;-64
2023/08/12 03:53:14;;;;;;;29.50;24.07;;;;;;;;;;5085016;28;20482;-63
2023/08/12 03:55:42;;;;;;;29.10;23.87;;;;;;;;;;5095882;28;20431;-64
2023/08/12 03:58:11;;;;;;;28.77;25.00;;;;;;;;;;5095973;28;20546;-63
2023/08/12 04:00:42;;;;;;;27.47;24.27;;;;;;;;;;5096169;28;20519;-63
2023/08/12 04:03:09;;;;;;;26.87;24.23;;;;;;;;;;5096345;28;20430;-63
2023/08/12 04:05:37;;;;;;;27.67;24.83;;;;;;;;;;5096124;28;20440;-63
2023/08/12 04:08:04;;;;;;;27.03;24.13;;;;;;;;;;5095845;28;20475;-63
2023/08/12 04:10:32;;;;;;;27.13;23.33;;;;;;;;;;5096332;28;20465;-63
2023/08/12 04:12:59;;;;;;;29.20;26.00;;;;;;;;;;5096086;28;20983;-63
2023/08/12 04:15:27;;;;;;;29.40;26.37;;;;;;;;;;5096066;28;20787;-63
2023/08/12 04:17:54;;;;;;;29.40;26.40;;;;;;;;;;5096072;28;20443;-63
2023/08/12 04:20:22;;;;;;;30.20;27.20;;;;;;;;;;5095476;28;20961;-63
2023/08/12 04:22:49;;;;;;;31.00;26.33;;;;;;;;;;5095537;28;20439;-63
2023/08/12 04:25:17;;;;;;;32.27;28.93;;;;;;;;;;5095883;28;20442;-63
2023/08/12 04:27:44;;;;;;;32.20;28.90;;;;;;;;;;5095980;28;20478;-63
2023/08/12 04:30:12;;;;;;;31.43;28.13;;;;;;;;;;5095711;28;20475;-64
2023/08/12 04:32:40;;;;;;;31.87;28.37;;;;;;;;;;5095704;28;20482;-63
2023/08/12 04:35:08;;;;;;;32.90;29.37;;;;;;;;;;5095697;28;20443;-63
2023/08/12 04:37:35;;;;;;;33.80;29.87;;;;;;;;;;5095575;28;20526;-64
2023/08/12 04:40:02;;;;;;;32.57;29.20;;;;;;;;;;5094416;28;20535;-64
2023/08/12 04:42:30;;;;;;;31.83;28.43;;;;;;;;;;5095137;28;20449;-64
2023/08/12 04:44:57;;;;;;;38.33;31.63;;;;;;;;;;5095217;28;20526;-63
2023/08/12 04:47:24;;;;;;;34.40;30.23;;;;;;;;;;5094842;28;20487;-63
2023/08/12 04:49:53;;;;;;;32.90;29.37;;;;;;;;;;5094998;28;20455;-63
2023/08/12 04:52:20;;;;;;;37.70;33.37;;;;;;;;;;5095424;28;20464;-63
2023/08/12 04:54:47;;;;;;;43.03;35.93;;;;;;;;;;5095274;28;20505;-63
2023/08/12 04:57:15;;;;;;;39.97;34.13;;;;;;;;;;5095205;28;20444;-64
2023/08/12 04:59:42;;;;;;;43.07;34.07;;;;;;;;;;5095164;28;21010;-64
2023/08/12 05:02:09;;;;;;;39.83;34.43;;;;;;;;;;5095291;28;20494;-63
2023/08/12 05:04:36;;;;;;;39.87;32.70;;;;;;;;;;5095680;28;20439;-63
2023/08/12 05:07:05;;;;;;;39.23;32.73;;;;;;;;;;5094742;28;20570;-63
2023/08/12 05:09:32;;;;;;;34.57;30.80;;;;;;;;;;5095174;28;20443;-64
2023/08/12 05:11:59;;;;;;;36.40;30.53;;;;;;;;;;5094972;28;20439;-64
2023/08/12 05:14:27;;;;;;;36.00;32.20;;;;;;;;;;5095526;28;20445;-63
2023/08/12 05:16:54;;;;;;;38.20;32.03;;;;;;;;;;5094508;28;20530;-63
2023/08/12 05:19:21;;;;;;;40.00;32.70;;;;;;;;;;5095095;28;20462;-63
2023/08/12 05:21:48;;;;;;;37.80;32.83;;;;;;;;;;5094647;28;20436;-64
2023/08/12 05:24:17;;;;;;;36.80;32.47;;;;;;;;;;5095218;28;20904;-63
2023/08/12 05:26:44;;;;;;;36.80;30.93;;;;;;;;;;5094742;28;20444;-64
2023/08/12 05:29:11;;;;;;;37.97;32.40;;;;;;;;;;5094914;28;20448;-64
2023/08/12 05:31:38;;;;;;;44.70;34.97;;;;;;;;;;5095274;28;20523;-64
2023/08/12 05:34:06;;;;;;;42.30;32.10;;;;;;;;;;5094748;28;20446;-63
2023/08/12 05:36:33;;;;;;;39.20;32.67;;;;;;;;;;5094689;28;20487;-63
2023/08/12 05:39:00;;;;;;;36.07;31.53;;;;;;;;;;5094821;28;20526;-63
2023/08/12 05:41:29;;;;;;;37.77;31.90;;;;;;;;;;5094508;28;20440;-64
2023/08/12 05:43:56;;;;;;;38.27;30.83;;;;;;;;;;5094178;28;20436;-63
2023/08/12 05:46:23;;;;;;;39.73;30.43;;;;;;;;;;5094530;28;20462;-64
2023/08/12 05:48:50;;;;;;;40.87;30.47;;;;;;;;;;5094932;28;20483;-64
2023/08/12 05:51:18;;;;;;;39.00;33.07;;;;;;;;;;5094106;28;20530;-62
2023/08/12 05:53:45;;;;;;;37.50;32.00;;;;;;;;;;5093990;28;20507;-64
2023/08/12 05:56:12;;;;;;;35.50;31.73;;;;;;;;;;5094108;28;20975;-65
2023/08/12 05:58:40;;;;;;;40.93;33.30;;;;;;;;;;5094326;28;20532;-64
2023/08/12 06:01:08;;;;;;;41.37;31.20;;;;;;;;;;5094540;28;20992;-64
2023/08/12 06:03:35;;;;;;;40.17;31.37;;;;;;;;;;5094114;28;20474;-65
2023/08/12 06:06:02;;;;;;;38.47;32.27;;;;;;;;;;5094116;28;20509;-64
2023/08/12 06:08:29;;;;;;;34.83;30.27;;;;;;;;;;5093573;28;20542;-65
2023/08/12 06:10:56;;;;;;;33.57;29.93;;;;;;;;;;5093916;28;21019;-70
2023/08/12 06:13:24;;;;;;;43.13;31.07;;;;;;;;;;5093902;28;20437;-64
2023/08/12 06:15:52;;;;;;;39.90;29.37;;;;;;;;;;5094129;28;20490;-65
2023/08/12 06:18:19;;;;;;;32.90;29.30;;;;;;;;;;5094079;28;20522;-64
2023/08/12 06:20:47;;;;;;;37.30;30.50;;;;;;;;;;5093581;28;20444;-65
2023/08/12 06:23:14;;;;;;;32.10;28.80;;;;;;;;;;5092560;28;20775;-64
2023/08/12 06:25:42;;;;;;;34.60;30.37;;;;;;;;;;5092665;28;20531;-64
2023/08/12 06:28:10;;;;;;;34.47;30.80;;;;;;;;;;5093156;28;20487;-64
2023/08/12 06:30:37;;;;;;;32.40;29.20;;;;;;;;;;5093033;28;20498;-64
2023/08/12 06:33:06;;;;;;;31.27;27.80;;;;;;;;;;5093476;28;20526;-64
2023/08/12 06:35:33;;;;;;;33.07;27.70;;;;;;;;;;5093276;28;20478;-64
2023/08/12 06:38:00;;;;;;;29.40;26.23;;;;;;;;;;5093532;28;20497;-64
2023/08/12 06:40:27;;;;;;;35.20;27.70;;;;;;;;;;5093819;28;20536;-64
2023/08/12 06:42:55;;;;;;;31.10;27.83;;;;;;;;;;5092773;28;20445;-64
2023/08/12 06:45:22;;;;;;;29.97;26.77;;;;;;;;;;5093107;28;20471;-64
2023/08/12 06:47:49;;;;;;;34.50;28.40;;;;;;;;;;5093045;28;20558;-64
2023/08/12 06:50:18;;;;;;;29.77;26.67;;;;;;;;;;5092972;28;20547;-64
2023/08/12 06:52:45;;;;;;;30.67;26.10;;;;;;;;;;5092419;28;20528;-64
2023/08/12 06:55:12;;;;;;;30.83;27.40;;;;;;;;;;5092674;28;21015;-64
2023/08/12 06:57:39;;;;;;;32.27;29.03;;;;;;;;;;5092981;28;20440;-65
2023/08/12 07:00:08;;;;;;;26.20;23.27;;;;;;;;;;5093269;28;20520;-65
2023/08/12 07:02:36;;;;;;;27.23;22.03;;;;;;;;;;5092393;28;20471;-65
2023/08/12 07:05:03;;;;;;;26.63;23.77;;;;;;;;;;5093163;28;20446;-65
2023/08/12 07:07:31;;;;;;;26.83;24.13;;;;;;;;;;5092632;28;20477;-65
2023/08/12 07:09:59;;;;;;;25.53;22.97;;;;;;;;;;5092957;28;20531;-65
2023/08/12 07:12:26;;;;;;;26.87;24.00;;;;;;;;;;5073044;28;20442;-64
2023/08/12 07:14:53;;;;;;;25.30;22.60;;;;;;;;;;5072581;28;20527;-62
2023/08/12 07:17:20;;;;;;;27.70;23.93;;;;;;;;;;5072897;28;20775;-63
2023/08/12 07:19:48;;;;;;;26.80;22.80;;;;;;;;;;5072815;28;20532;-63
2023/08/12 07:22:19;;;;;;;29.53;26.00;;;;;;;;;;5072505;28;20489;-64
2023/08/12 07:24:47;;;;;;;28.47;23.20;;;;;;;;;;5072771;28;20456;-64
2023/08/12 07:27:14;;;;;;;26.20;23.67;;;;;;;;;;5072789;28;20520;-64
2023/08/12 07:29:42;;;;;;;27.70;24.60;;;;;;;;;;5072147;28;20448;-64
2023/08/12 07:32:09;;;;;;;26.83;24.13;;;;;;;;;;5072160;28;20490;-64
2023/08/12 07:34:36;;;;;;;28.50;23.47;;;;;;;;;;5072488;28;20523;-64
2023/08/12 07:37:03;;;;;;;26.33;23.50;;;;;;;;;;5072319;28;20939;-64
2023/08/12 07:39:30;;;;;;;27.23;24.30;;;;;;;;;;5072474;28;20791;-64
2023/08/12 07:41:59;;;;;;;26.50;23.20;;;;;;;;;;5072333;28;20752;-64
2023/08/12 07:44:26;;;;;;;27.77;23.13;;;;;;;;;;5071936;28;20528;-64
2023/08/12 07:46:53;;;;;;;38.70;34.70;;;;;;;;;;5071695;28;20941;-64
2023/08/12 07:49:20;;;;;;;26.93;23.57;;;;;;;;;;5071472;28;20567;-64
2023/08/12 07:51:48;;;;;;;27.90;21.73;;;;;;;;;;5079835;28;20446;-64
2023/08/12 07:54:15;;;;;;;25.80;22.83;;;;;;;;;;5091327;28;20476;-64
2023/08/12 07:56:42;;;;;;;29.07;25.50;;;;;;;;;;5091821;28;20704;-64
2023/08/12 07:59:11;;;;;;;25.40;22.67;;;;;;;;;;5091888;28;20444;-64
2023/08/12 08:01:38;;;;;;;31.80;24.03;;;;;;;;;;5092181;28;20792;-64
2023/08/12 08:04:06;;;;;;;29.83;24.27;;;;;;;;;;5092053;28;20475;-64
2023/08/12 08:06:33;;;;;;;25.80;22.97;;;;;;;;;;5092193;28;20448;-64
2023/08/12 08:09:02;;;;;;;27.33;24.00;;;;;;;;;;5091627;28;20494;-64
2023/08/12 08:11:30;;;;;;;26.93;24.10;;;;;;;;;;5092333;28;20448;-64
2023/08/12 08:13:57;;;;;;;26.33;23.40;;;;;;;;;;5092656;28;20988;-63
2023/08/12 08:16:26;;;;;;;27.60;24.67;;;;;;;;;;5095973;28;20510;-64
2023/08/12 08:18:53;;;;;;;26.30;22.67;;;;;;;;;;5095557;28;20459;-64
2023/08/12 08:21:20;;;;;;;23.60;21.30;;;;;;;;;;5095113;28;20539;-64
2023/08/12 08:23:47;;;;;;;23.40;20.93;;;;;;;;;;5095343;28;20920;-65
2023/08/12 08:26:15;;;;;;;22.30;20.00;;;;;;;;;;5095273;28;20450;-64
2023/08/12 08:28:42;;;;;;;21.63;18.70;;;;;;;;;;5095058;28;20476;-64
2023/08/12 08:31:10;;;;;;;21.63;18.93;;;;;;;;;;5095129;28;20528;-64
2023/08/12 08:33:38;;;;;;;18.83;16.87;;;;;;;;;;5095166;28;20455;-64
2023/08/12 08:36:06;;;;;;;16.90;15.27;;;;;;;;;;5095280;28;20452;-64
2023/08/12 08:38:33;;;;;;;14.97;13.67;;;;;;;;;;5095400;28;20448;-64
2023/08/12 08:41:01;;;;;;;16.80;14.47;;;;;;;;;;5094795;28;20541;-64
2023/08/12 08:43:29;;;;;;;16.40;13.37;;;;;;;;;;5094980;28;20443;-64
2023/08/12 08:45:56;;;;;;;14.20;12.77;;;;;;;;;;5095116;28;20809;-64
2023/08/12 08:48:23;;;;;;;14.17;12.77;;;;;;;;;;5095400;28;20915;-64
2023/08/12 08:50:52;;;;;;;12.97;11.53;;;;;;;;;;5094308;28;20451;-65
2023/08/12 08:53:19;;;;;;;12.10;11.00;;;;;;;;;;5094667;28;20965;-64
2023/08/12 08:55:47;;;;;;;13.47;12.07;;;;;;;;;;5095058;28;20468;-64
2023/08/12 08:58:14;;;;;;;9.63;8.30;;;;;;;;;;5095108;28;20772;-64
2023/08/12 09:00:41;;;;;;;10.67;9.67;;;;;;;;;;5095109;28;20429;-64
2023/08/12 09:03:09;;;;;;;9.80;9.00;;;;;;;;;;5095060;28;20782;-64
2023/08/12 09:05:38;;;;;;;9.30;8.43;;;;;;;;;;5094700;28;20934;-64
2023/08/12 09:08:10;;;;;;;8.37;7.67;;;;;;;;;;5094808;28;20472;-64
2023/08/12 09:10:39;;;;;;;8.03;7.27;;;;;;;;;;5095395;28;20420;-64
2023/08/12 09:13:06;;;;;;;9.80;7.47;;;;;;;;;;5094866;28;20522;-64
2023/08/12 09:15:33;;;;;;;7.93;7.20;;;;;;;;;;5095069;28;20469;-63
2023/08/12 09:18:01;;;;;;;9.27;7.73;;;;;;;;;;5095550;28;20446;-64
2023/08/12 09:20:28;;;;;;;8.40;7.70;;;;;;;;;;5095120;28;20994;-64
2023/08/12 09:22:59;;;;;;;7.67;7.00;;;;;;;;;;5094726;28;20451;-64
2023/08/12 09:25:29;;;;;;;11.83;6.97;;;;;;;;;;5094381;28;20442;-64
2023/08/12 09:27:56;;;;;;;8.50;6.93;;;;;;;;;;5094554;28;20448;-64
2023/08/12 09:30:24;;;;;;;7.77;6.90;;;;;;;;;;5094626;28;20440;-64
2023/08/12 09:33:01;;;;;;;8.63;7.00;;;;;;;;;;5094715;28;20934;-64
2023/08/12 09:35:33;;;;;;;8.33;7.53;;;;;;;;;;5094727;28;20478;-65
2023/08/12 09:38:00;;;;;;;8.70;7.90;;;;;;;;;;5094941;28;20419;-64
2023/08/12 09:40:29;;;;;;;9.17;8.30;;;;;;;;;;5094749;28;20441;-64
2023/08/12 09:42:56;;;;;;;8.43;7.67;;;;;;;;;;5094757;28;20489;-64
2023/08/12 09:45:25;;;;;;;10.20;8.60;;;;;;;;;;5094598;28;20450;-64
2023/08/12 09:47:52;;;;;;;8.00;7.23;;;;;;;;;;5094874;28;20439;-64
2023/08/12 09:50:19;;;;;;;9.43;8.67;;;;;;;;;;5093921;28;20498;-64
2023/08/12 09:52:47;;;;;;;10.03;7.83;;;;;;;;;;5092622;28;20933;-64
2023/08/12 09:55:16;;;;;;;7.83;7.13;;;;;;;;;;5093882;28;21008;-64
2023/08/12 09:57:45;;;;;;;8.47;7.30;;;;;;;;;;5094488;28;20782;-64
2023/08/12 10:00:16;;;;;;;7.70;7.10;;;;;;;;;;5094222;28;20864;-65
2023/08/12 10:02:44;;;;;;;8.17;7.33;;;;;;;;;;5093969;28;20436;-64
2023/08/12 10:05:12;;;;;;;7.00;6.23;;;;;;;;;;5094050;28;20448;-65
2023/08/12 10:07:39;;;;;;;7.80;7.07;;;;;;;;;;5094149;28;20441;-65
2023/08/12 10:10:07;;;;;;;6.60;6.10;;;;;;;;;;5093866;28;20831;-65
2023/08/12 10:12:35;;;;;;;6.47;6.00;;;;;;;;;;5093692;28;20515;-64
2023/08/12 10:15:03;;;;;;;7.83;6.13;;;;;;;;;;5093545;28;20531;-64
2023/08/12 10:17:31;;;;;;;6.53;6.03;;;;;;;;;;5093679;28;20536;-64
2023/08/12 10:19:58;;;;;;;7.17;6.57;;;;;;;;;;5093925;28;20442;-64
2023/08/12 10:22:26;;;;;;;7.40;6.70;;;;;;;;;;5093413;28;20439;-64
2023/08/12 10:24:53;;;;;;;7.50;5.87;;;;;;;;;;5093092;28;20531;-64
2023/08/12 10:27:20;;;;;;;6.80;6.30;;;;;;;;;;5093491;28;20527;-64
2023/08/12 10:29:48;;;;;;;9.60;8.30;;;;;;;;;;5093733;28;20562;-64
2023/08/12 10:32:17;;;;;;;8.57;7.83;;;;;;;;;;5093473;28;20481;-64
2023/08/12 10:34:44;;;;;;;8.30;7.60;;;;;;;;;;5093193;28;20634;-64
2023/08/12 10:37:12;;;;;;;8.10;7.50;;;;;;;;;;5092115;28;20526;-64
2023/08/12 10:39:40;;;;;;;9.47;8.47;;;;;;;;;;5093297;28;20537;-63
2023/08/12 10:42:07;;;;;;;9.70;8.80;;;;;;;;;;5093459;28;20488;-64
2023/08/12 10:44:40;;;;;;;8.67;7.97;;;;;;;;;;5093208;28;20722;-63
2023/08/12 10:47:09;;;;;;;10.10;9.40;;;;;;;;;;5093147;28;20420;-62
2023/08/12 10:49:44;;;;;;;8.63;7.93;;;;;;;;;;5092746;28;20502;-62
2023/08/12 10:52:21;;;;;;;9.00;8.23;;;;;;;;;;5093030;28;20439;-62
2023/08/12 10:54:48;;;;;;;9.23;8.57;;;;;;;;;;5092414;28;20566;-63
2023/08/12 10:57:16;;;;;;;8.50;7.80;;;;;;;;;;5091783;28;20436;-62
2023/08/12 10:59:50;;;;;;;7.73;7.13;;;;;;;;;;5092733;28;20530;-63
2023/08/12 11:02:18;;;;;;;8.30;7.70;;;;;;;;;;5092274;28;20940;-62
2023/08/12 11:04:49;;;;;;;8.60;7.87;;;;;;;;;;5092493;28;20497;-62
2023/08/12 11:07:18;;;;;;;7.93;7.23;;;;;;;;;;5092603;28;20524;-61
2023/08/12 11:09:45;;;;;;;6.87;6.37;;;;;;;;;;5092776;28;20483;-61
2023/08/12 11:12:12;;;;;;;7.37;6.77;;;;;;;;;;5092279;28;20440;-61
2023/08/12 11:14:49;;;;;;;7.17;6.57;;;;;;;;;;5092892;28;20448;-62
2023/08/12 11:17:17;;;;;;;6.87;6.33;;;;;;;;;;5092744;28;20454;-61
2023/08/12 11:19:44;;;;;;;6.27;5.83;;;;;;;;;;5093167;28;20527;-61
2023/08/12 11:22:13;;;;;;;7.30;6.80;;;;;;;;;;5092661;28;20463;-61
2023/08/12 11:24:42;;;;;;;7.70;7.10;;;;;;;;;;5092872;28;20450;-61
2023/08/12 11:27:11;;;;;;;8.07;7.37;;;;;;;;;;5092375;28;20446;-62
2023/08/12 11:29:39;;;;;;;6.53;6.03;;;;;;;;;;5092805;28;20476;-61
2023/08/12 11:32:07;;;;;;;6.97;6.40;;;;;;;;;;5092329;28;20432;-62
2023/08/12 11:34:34;;;;;;;7.03;6.27;;;;;;;;;;5092886;28;20444;-62
2023/08/12 11:37:01;;;;;;;6.10;5.70;;;;;;;;;;5092945;28;20444;-61
2023/08/12 11:39:30;;;;;;;7.27;6.67;;;;;;;;;;5092986;28;20463;-61
2023/08/12 11:41:58;;;;;;;7.77;7.07;;;;;;;;;;5092689;28;20432;-61
2023/08/12 11:44:25;;;;;;;6.80;6.20;;;;;;;;;;5092981;28;20437;-62
2023/08/12 11:46:53;;;;;;;6.60;6.10;;;;;;;;;;5093151;28;20558;-62
2023/08/12 11:49:20;;;;;;;6.17;5.67;;;;;;;;;;5095751;28;20483;-62
2023/08/12 11:51:49;;;;;;;6.70;6.10;;;;;;;;;;5096378;28;20536;-62
2023/08/12 11:54:17;;;;;;;5.67;5.30;;;;;;;;;;5097154;28;20514;-62
2023/08/12 11:56:46;;;;;;;6.53;5.63;;;;;;;;;;5096293;28;20432;-62
2023/08/12 11:59:13;;;;;;;6.40;5.90;;;;;;;;;;5096761;28;20441;-62
2023/08/12 12:01:40;;;;;;;7.07;6.13;;;;;;;;;;5097154;28;20846;-62
2023/08/12 12:04:07;;;;;;;7.37;6.67;;;;;;;;;;5096293;28;20935;-62
2023/08/12 12:06:37;;;;;;;6.23;5.73;;;;;;;;;;5096756;28;20871;-62
2023/08/12 12:09:06;;;;;;;6.50;6.00;;;;;;;;;;5096725;28;20497;-62
2023/08/12 12:11:33;;;;;;;6.30;5.90;;;;;;;;;;5096749;28;20492;-62
2023/08/12 12:14:03;;;;;;;6.07;5.67;;;;;;;;;;5096479;28;20434;-63
2023/08/12 12:16:40;;;;;;;7.50;6.90;;;;;;;;;;5096166;28;20480;-62
2023/08/12 12:19:10;;;;;;;8.63;6.40;;;;;;;;;;5096376;28;20417;-62
2023/08/12 12:21:41;;;;;;;7.77;7.17;;;;;;;;;;5096665;28;20442;-62
2023/08/12 12:24:09;;;;;;;8.60;8.00;;;;;;;;;;5096008;28;20441;-62
2023/08/12 12:26:36;;;;;;;8.37;7.77;;;;;;;;;;5096407;28;20450;-62
2023/08/12 12:29:05;;;;;;;8.90;8.20;;;;;;;;;;5096186;28;20537;-62
2023/08/12 12:31:33;;;;;;;9.60;8.60;;;;;;;;;;5096247;28;20516;-62
2023/08/12 12:34:00;;;;;;;9.53;8.73;;;;;;;;;;5096060;28;20434;-62
2023/08/12 12:36:27;;;;;;;9.33;8.63;;;;;;;;;;5095998;28;20444;-62
2023/08/12 12:38:55;;;;;;;8.73;7.83;;;;;;;;;;5096214;28;20438;-62
2023/08/12 12:41:22;;;;;;;9.50;7.93;;;;;;;;;;5096065;28;20530;-62
2023/08/12 12:43:49;;;;;;;8.00;7.50;;;;;;;;;;5095941;28;20516;-62
2023/08/12 12:46:18;;;;;;;7.53;7.00;;;;;;;;;;5096019;28;20469;-62
2023/08/12 12:48:45;;;;;;;8.03;7.33;;;;;;;;;;5095357;28;20438;-62
2023/08/12 12:51:13;;;;;;;6.93;6.43;;;;;;;;;;5077751;28;20502;-62
2023/08/12 12:53:40;;;;;;;8.50;7.90;;;;;;;;;;5074891;28;20563;-62
2023/08/12 12:56:07;;;;;;;11.00;8.00;;;;;;;;;;5075649;28;20806;-62
2023/08/12 12:58:35;;;;;;;7.57;6.90;;;;;;;;;;5075065;28;20992;-62
2023/08/12 13:01:02;;;;;;;7.97;7.30;;;;;;;;;;5074582;28;20442;-62
2023/08/12 13:03:32;;;;;;;7.07;6.33;;;;;;;;;;5075561;28;20534;-62
2023/08/12 13:05:59;;;;;;;7.07;6.57;;;;;;;;;;5075643;28;20444;-62
2023/08/12 13:08:26;;;;;;;6.50;5.90;;;;;;;;;;5075121;28;20519;-62
2023/08/12 13:10:53;;;;;;;6.43;5.90;;;;;;;;;;5074848;28;20983;-63
2023/08/12 13:13:20;;;;;;;6.20;5.80;;;;;;;;;;5075012;28;20520;-62
2023/08/12 13:15:48;;;;;;;8.10;6.07;;;;;;;;;;5074689;28;20480;-62
2023/08/12 13:18:15;;;;;;;6.57;6.07;;;;;;;;;;5075257;28;20984;-62
2023/08/12 13:20:44;;;;;;;6.20;5.80;;;;;;;;;;5075022;28;20501;-62
2023/08/12 13:23:11;;;;;;;6.40;5.90;;;;;;;;;;5075071;28;20777;-62
2023/08/12 13:25:39;;;;;;;5.67;5.27;;;;;;;;;;5075074;28;20444;-62
2023/08/12 13:28:06;;;;;;;6.60;6.03;;;;;;;;;;5074764;28;20439;-62
2023/08/12 13:30:34;;;;;;;5.60;5.20;;;;;;;;;;5074957;28;20511;-62
2023/08/12 13:33:01;;;;;;;5.40;4.90;;;;;;;;;;5075062;28;20444;-62
2023/08/12 13:35:28;;;;;;;15.90;5.80;;;;;;;;;;5074268;28;20525;-62
2023/08/12 13:37:57;;;;;;;6.40;5.90;;;;;;;;;;5074630;28;20859;-62
2023/08/12 13:40:24;;;;;;;6.43;5.83;;;;;;;;;;5074093;28;20475;-62
2023/08/12 13:42:51;;;;;;;4.80;4.50;;;;;;;;;;5074379;28;20518;-62
2023/08/12 13:45:19;;;;;;;5.10;4.80;;;;;;;;;;5074300;28;20439;-62
2023/08/12 13:47:46;;;;;;;4.97;4.60;;;;;;;;;;5074609;28;20573;-62
2023/08/12 13:50:13;;;;;;;5.00;3.90;;;;;;;;;;5073914;28;20482;-62
2023/08/12 13:52:40;;;;;;;5.50;5.10;;;;;;;;;;5074500;28;20435;-63
2023/08/12 13:55:10;;;;;;;5.57;5.17;;;;;;;;;;5073810;28;20568;-61
2023/08/12 13:57:37;;;;;;;4.83;4.53;;;;;;;;;;5074627;28;20443;-62
2023/08/12 14:00:09;;;;;;;5.23;4.83;;;;;;;;;;5087154;28;20441;-62
2023/08/12 14:02:36;;;;;;;7.57;5.50;;;;;;;;;;5093562;28;20481;-62
2023/08/12 14:05:04;;;;;;;5.37;4.83;;;;;;;;;;5093068;28;20442;-62
2023/08/12 14:07:31;;;;;;;5.90;5.50;;;;;;;;;;5092944;28;20505;-61
2023/08/12 14:09:59;;;;;;;5.10;4.70;;;;;;;;;;5093224;28;20563;-61
2023/08/12 14:12:28;;;;;;;6.77;5.33;;;;;;;;;;5092510;28;20544;-61
2023/08/12 14:14:55;;;;;;;5.57;5.07;;;;;;;;;;5092643;28;20975;-61
2023/08/12 14:17:23;;;;;;;5.53;5.00;;;;;;;;;;5093634;28;20519;-62
2023/08/12 14:19:50;;;;;;;5.80;5.20;;;;;;;;;;5092888;28;20444;-61
2023/08/12 14:22:17;;;;;;;7.30;6.67;;;;;;;;;;5093619;28;20435;-61
2023/08/12 14:24:45;;;;;;;7.17;6.47;;;;;;;;;;5093318;28;20446;-62
2023/08/12 14:27:12;;;;;;;5.87;5.47;;;;;;;;;;5093548;28;20455;-61
2023/08/12 14:29:41;;;;;;;5.13;4.80;;;;;;;;;;5093506;28;20443;-62